Time;durP1;ratioP1;P1;durP2;ratioP2;P2;SDS_P1;SDS_P2;PMS_P1;PMS_P2;Temp;Humidity;BMP_temperature;BMP_pressure;BME280_temperature;BME280_humidity;BME280_pressure;Samples;Min_cycle;Max_cycle;Signal;HPM_P1;HPM_P2
2021/04/09 00:02:24;;;;;;;10.07;1.70;;;8.90;99.90;;;;;;4862516;29;20041;-75
2021/04/09 00:04:50;;;;;;;13.50;2.33;;;8.90;99.90;;;;;;4862297;29;20073;-75
2021/04/09 00:07:16;;;;;;;12.02;1.70;;;9.00;99.90;;;;;;4862482;29;20140;-75
2021/04/09 00:09:42;;;;;;;9.85;2.13;;;9.00;99.90;;;;;;4862404;29;20045;-75
2021/04/09 00:12:10;;;;;;;11.73;2.13;;;9.00;99.90;;;;;;4862174;29;20042;-75
2021/04/09 00:14:36;;;;;;;9.00;2.42;;;9.00;99.90;;;;;;4862422;29;20041;-75
2021/04/09 00:17:03;;;;;;;13.75;2.58;;;9.00;99.90;;;;;;4862428;29;20045;-75
2021/04/09 00:19:29;;;;;;;15.05;2.10;;;9.00;99.90;;;;;;4862369;29;20041;-75
2021/04/09 00:21:55;;;;;;;12.50;2.70;;;9.00;99.90;;;;;;4862694;29;20038;-75
2021/04/09 00:24:21;;;;;;;10.00;2.15;;;9.00;99.90;;;;;;4862098;29;20129;-75
2021/04/09 00:26:47;;;;;;;17.20;2.30;;;9.00;99.90;;;;;;4862324;29;20065;-75
2021/04/09 00:29:13;;;;;;;11.98;2.25;;;9.00;99.90;;;;;;4861904;29;20189;-75
2021/04/09 00:31:39;;;;;;;12.05;2.50;;;9.00;99.90;;;;;;4862089;29;20041;-75
2021/04/09 00:34:06;;;;;;;8.50;2.15;;;9.00;99.90;;;;;;4862008;29;20081;-75
2021/04/09 00:36:36;;;;;;;12.70;2.60;;;9.00;99.90;;;;;;4862063;29;20045;-75
2021/04/09 00:39:04;;;;;;;11.52;2.40;;;9.00;99.90;;;;;;4862030;29;20076;-75
2021/04/09 00:41:30;;;;;;;14.02;2.28;;;9.10;99.90;;;;;;4862250;29;20041;-75
2021/04/09 00:43:56;;;;;;;8.32;1.98;;;9.00;99.90;;;;;;4861796;29;20132;-75
2021/04/09 00:46:23;;;;;;;16.00;2.90;;;9.00;99.90;;;;;;4862174;29;20049;-75
2021/04/09 00:48:49;;;;;;;12.23;2.45;;;9.00;99.90;;;;;;4862404;29;20049;-75
2021/04/09 00:51:16;;;;;;;12.55;2.33;;;9.10;99.90;;;;;;4861877;29;20038;-75
2021/04/09 00:53:43;;;;;;;7.70;2.17;;;9.10;99.90;;;;;;4861882;29;20206;-75
2021/04/09 00:56:12;;;;;;;10.18;2.35;;;9.10;99.90;;;;;;4862141;29;20045;-75
2021/04/09 00:58:38;;;;;;;12.23;2.13;;;9.10;99.90;;;;;;4861812;29;20041;-75
2021/04/09 01:01:04;;;;;;;9.50;2.40;;;9.10;99.90;;;;;;4862635;29;20107;-75
2021/04/09 01:03:32;;;;;;;10.88;2.70;;;9.10;99.90;;;;;;4861980;29;20557;-75
2021/04/09 01:05:59;;;;;;;12.27;2.30;;;9.10;99.90;;;;;;4861770;29;20209;-75
2021/04/09 01:08:24;;;;;;;11.80;2.30;;;9.10;99.90;;;;;;4861628;29;20045;-75
2021/04/09 01:10:50;;;;;;;13.77;2.55;;;9.10;99.90;;;;;;4862007;29;20056;-75
2021/04/09 01:13:16;;;;;;;9.82;2.42;;;9.10;99.90;;;;;;4863365;29;20068;-75
2021/04/09 01:15:42;;;;;;;15.27;2.40;;;9.10;99.90;;;;;;4865430;29;20540;-75
2021/04/09 01:18:17;;;;;;;12.30;2.78;;;9.10;99.90;;;;;;4865325;29;20090;-75
2021/04/09 01:21:01;;;;;;;13.98;2.75;;;9.10;99.90;;;;;;4865571;29;20041;-75
2021/04/09 01:24:00;;;;;;;10.95;2.42;;;9.10;99.90;;;;;;4865130;29;20034;-75
2021/04/09 01:26:48;;;;;;;9.55;1.98;;;9.20;99.90;;;;;;4865154;29;20037;-75
2021/04/09 01:29:36;;;;;;;9.85;2.65;;;9.10;99.90;;;;;;4864965;29;20537;-75
2021/04/09 01:32:03;;;;;;;12.52;2.70;;;9.20;99.90;;;;;;4864849;29;20042;-75
2021/04/09 01:34:37;;;;;;;11.35;2.40;;;9.20;99.90;;;;;;4865119;29;20064;-75
2021/04/09 01:37:15;;;;;;;9.43;2.38;;;9.20;99.90;;;;;;4864430;29;20041;-75
2021/04/09 01:39:48;;;;;;;10.40;2.30;;;9.20;99.90;;;;;;4864663;29;20041;-75
2021/04/09 01:42:16;;;;;;;12.02;2.20;;;9.20;99.90;;;;;;4864328;29;20080;-76
2021/04/09 01:44:45;;;;;;;14.45;2.50;;;9.30;99.90;;;;;;4864671;29;20034;-75
2021/04/09 01:47:13;;;;;;;11.48;2.28;;;9.30;99.90;;;;;;4864522;29;20092;-75
2021/04/09 01:49:40;;;;;;;13.60;2.53;;;9.20;99.90;;;;;;4864377;29;20042;-75
2021/04/09 01:52:10;;;;;;;9.45;1.95;;;9.20;99.90;;;;;;4864923;29;20045;-75
2021/04/09 01:54:39;;;;;;;11.85;2.22;;;9.20;99.90;;;;;;4864714;29;20072;-75
2021/04/09 01:57:09;;;;;;;13.25;2.33;;;9.20;99.90;;;;;;4864638;29;20045;-75
2021/04/09 01:59:38;;;;;;;10.02;3.00;;;9.20;99.90;;;;;;4864410;29;20481;-75
2021/04/09 02:02:05;;;;;;;12.73;2.53;;;9.30;99.90;;;;;;4864302;29;20045;-75
2021/04/09 02:04:32;;;;;;;14.32;2.42;;;9.30;99.90;;;;;;4864566;29;20049;-75
2021/04/09 02:07:00;;;;;;;6.03;2.05;;;9.30;99.90;;;;;;4864468;29;20045;-75
2021/04/09 02:09:27;;;;;;;12.35;2.28;;;9.30;99.90;;;;;;4864306;29;20517;-75
2021/04/09 02:11:55;;;;;;;14.55;2.03;;;9.30;99.90;;;;;;4864438;29;20050;-75
2021/04/09 02:14:22;;;;;;;14.27;2.55;;;9.20;99.90;;;;;;4864331;29;20105;-75
2021/04/09 02:16:48;;;;;;;15.45;2.40;;;9.20;99.90;;;;;;4864304;29;20101;-75
2021/04/09 02:19:14;;;;;;;10.15;2.13;;;9.20;99.90;;;;;;4864472;29;20045;-75
2021/04/09 02:21:41;;;;;;;13.93;2.78;;;9.30;99.90;;;;;;4864440;29;20034;-75
2021/04/09 02:24:08;;;;;;;16.02;2.85;;;9.30;99.90;;;;;;4863773;29;20489;-75
2021/04/09 02:26:38;;;;;;;11.27;2.15;;;9.30;99.90;;;;;;4864185;29;20037;-75
2021/04/09 02:29:05;;;;;;;16.73;2.65;;;9.30;99.90;;;;;;4864632;29;20053;-75
2021/04/09 02:31:30;;;;;;;13.85;2.50;;;9.20;99.90;;;;;;4863807;29;20041;-75
2021/04/09 02:33:56;;;;;;;11.18;2.65;;;9.30;99.90;;;;;;4863741;29;20101;-75
2021/04/09 02:36:28;;;;;;;13.48;2.13;;;9.30;99.90;;;;;;4863973;29;20128;-75
2021/04/09 02:39:00;;;;;;;10.85;2.92;;;9.30;99.90;;;;;;4864194;29;20080;-75
2021/04/09 02:41:31;;;;;;;12.85;2.20;;;9.30;99.90;;;;;;4864510;29;20076;-75
2021/04/09 02:43:57;;;;;;;14.38;2.42;;;9.30;99.90;;;;;;4863747;29;20048;-75
2021/04/09 02:46:37;;;;;;;11.75;2.45;;;9.30;99.90;;;;;;4863918;29;20045;-75
2021/04/09 02:49:26;;;;;;;13.75;2.28;;;9.30;99.90;;;;;;4863746;29;20140;-75
2021/04/09 02:51:55;;;;;;;10.82;2.47;;;9.30;99.90;;;;;;4863044;29;20042;-75
2021/04/09 02:54:24;;;;;;;14.35;2.35;;;9.30;99.90;;;;;;4863388;29;20098;-75
2021/04/09 02:56:53;;;;;;;13.82;2.13;;;9.30;99.90;;;;;;4864109;29;20046;-75
2021/04/09 02:59:20;;;;;;;15.10;2.30;;;9.30;99.90;;;;;;4863302;29;20050;-75
2021/04/09 03:01:46;;;;;;;13.70;2.28;;;9.30;99.90;;;;;;4863196;29;20037;-75
2021/04/09 03:04:13;;;;;;;13.68;2.00;;;9.40;99.90;;;;;;4863182;29;20618;-75
2021/04/09 03:06:43;;;;;;;9.15;1.67;;;9.40;99.90;;;;;;4862734;29;20046;-75
2021/04/09 03:09:10;;;;;;;14.35;2.30;;;9.30;99.90;;;;;;4862745;29;20052;-75
2021/04/09 03:11:37;;;;;;;10.02;1.90;;;9.40;99.90;;;;;;4862816;29;20046;-75
2021/04/09 03:14:04;;;;;;;11.52;2.10;;;9.40;99.90;;;;;;4863015;29;20049;-75
2021/04/09 03:16:52;;;;;;;15.23;2.30;;;9.40;99.90;;;;;;4863000;29;20048;-75
2021/04/09 03:19:18;;;;;;;10.05;2.05;;;9.40;99.90;;;;;;4862073;29;20505;-75
2021/04/09 03:21:44;;;;;;;11.50;2.05;;;9.40;99.90;;;;;;4862654;29;20048;-75
2021/04/09 03:24:10;;;;;;;6.25;1.90;;;9.40;99.90;;;;;;4862846;29;20041;-75
2021/04/09 03:26:36;;;;;;;13.07;2.05;;;9.30;99.90;;;;;;4862521;29;20374;-75
2021/04/09 03:29:02;;;;;;;17.27;2.38;;;9.30;99.90;;;;;;4862874;29;20498;-75
2021/04/09 03:31:28;;;;;;;10.07;2.22;;;9.30;99.90;;;;;;4862766;29;20493;-75
2021/04/09 03:33:54;;;;;;;7.70;1.80;;;9.40;99.90;;;;;;4862702;29;20089;-75
2021/04/09 03:36:19;;;;;;;15.70;2.90;;;9.40;99.90;;;;;;4862020;29;20084;-75
2021/04/09 03:38:45;;;;;;;14.02;2.10;;;9.40;99.90;;;;;;4862859;29;20128;-75
2021/04/09 03:41:11;;;;;;;13.68;2.28;;;9.40;99.90;;;;;;4862607;29;20041;-75
2021/04/09 03:43:37;;;;;;;12.73;2.30;;;9.40;99.90;;;;;;4862346;29;20041;-75
2021/04/09 03:46:03;;;;;;;14.35;2.00;;;9.40;99.90;;;;;;4862283;29;20052;-75
2021/04/09 03:48:29;;;;;;;8.30;1.83;;;9.40;99.90;;;;;;4862472;29;20053;-75
2021/04/09 03:50:54;;;;;;;9.50;1.83;;;9.40;99.90;;;;;;4862447;29;20038;-75
2021/04/09 03:53:20;;;;;;;11.05;2.38;;;9.40;99.90;;;;;;4862091;29;20089;-75
2021/04/09 03:55:46;;;;;;;10.13;2.47;;;9.40;99.90;;;;;;4862413;29;20037;-75
2021/04/09 03:58:12;;;;;;;12.65;2.35;;;9.40;99.90;;;;;;4861973;29;20055;-75
2021/04/09 04:00:38;;;;;;;11.25;2.10;;;9.40;99.90;;;;;;4862187;29;20057;-75
2021/04/09 04:03:04;;;;;;;13.00;2.22;;;9.40;99.90;;;;;;4862598;29;20045;-75
2021/04/09 04:05:29;;;;;;;9.50;1.67;;;9.40;99.90;;;;;;4862754;29;20100;-75
2021/04/09 04:07:55;;;;;;;12.10;2.40;;;9.40;99.90;;;;;;4862511;29;20057;-75
2021/04/09 04:10:21;;;;;;;10.23;1.98;;;9.40;99.90;;;;;;4862306;29;20045;-75
2021/04/09 04:12:47;;;;;;;11.43;2.00;;;9.40;99.90;;;;;;4861175;29;20124;-75
2021/04/09 04:15:13;;;;;;;11.77;1.90;;;9.30;99.90;;;;;;4862072;29;20045;-75
2021/04/09 04:17:39;;;;;;;14.45;2.20;;;9.30;99.90;;;;;;4862455;29;20049;-75
2021/04/09 04:20:06;;;;;;;12.82;1.98;;;9.30;99.90;;;;;;4862058;29;20489;-75
2021/04/09 04:22:32;;;;;;;10.77;2.08;;;9.30;99.90;;;;;;4862062;29;20521;-75
2021/04/09 04:24:58;;;;;;;8.20;2.08;;;9.20;99.90;;;;;;4862395;29;20052;-75
2021/04/09 04:27:24;;;;;;;12.73;2.17;;;9.20;99.90;;;;;;4862309;29;20053;-75
2021/04/09 04:29:50;;;;;;;7.07;2.00;;;9.10;99.90;;;;;;4862327;29;20045;-75
2021/04/09 04:32:16;;;;;;;11.07;1.67;;;9.10;99.90;;;;;;4862246;29;20129;-75
2021/04/09 04:34:41;;;;;;;13.25;1.70;;;9.10;99.90;;;;;;4862303;29;20104;-75
2021/04/09 04:37:07;;;;;;;14.52;2.40;;;9.20;99.90;;;;;;4862008;29;20077;-75
2021/04/09 04:39:33;;;;;;;8.73;1.75;;;9.20;99.90;;;;;;4862468;29;20390;-75
2021/04/09 04:41:59;;;;;;;6.93;2.10;;;9.30;99.90;;;;;;4861980;29;20080;-75
2021/04/09 04:44:25;;;;;;;10.13;2.00;;;9.30;99.90;;;;;;4862071;29;20066;-75
2021/04/09 04:46:50;;;;;;;12.93;1.95;;;9.20;99.90;;;;;;4863613;29;20049;-75
2021/04/09 04:49:16;;;;;;;8.43;1.73;;;9.20;99.90;;;;;;4865933;29;20080;-75
2021/04/09 04:51:42;;;;;;;10.55;1.75;;;9.20;99.90;;;;;;4865797;29;20051;-75
2021/04/09 04:54:08;;;;;;;7.90;1.73;;;9.20;99.90;;;;;;4865787;29;20149;-76
2021/04/09 04:56:34;;;;;;;9.02;2.00;;;9.20;99.90;;;;;;4864612;29;20049;-75
2021/04/09 04:58:59;;;;;;;8.40;1.98;;;9.20;99.90;;;;;;4864307;29;20045;-76
2021/04/09 05:01:25;;;;;;;10.65;1.73;;;9.10;99.90;;;;;;4864904;29;20056;-75
2021/04/09 05:03:51;;;;;;;12.05;2.20;;;9.10;99.90;;;;;;4865285;29;20045;-76
2021/04/09 05:06:17;;;;;;;9.45;2.30;;;9.20;99.90;;;;;;4864980;29;20054;-75
2021/04/09 05:08:43;;;;;;;9.15;2.00;;;9.20;99.90;;;;;;4864770;29;20190;-75
2021/04/09 05:11:09;;;;;;;10.75;2.42;;;9.20;99.90;;;;;;4861691;29;20052;-76
2021/04/09 05:13:34;;;;;;;14.65;2.13;;;9.20;99.90;;;;;;4861196;29;20061;-75
2021/04/09 05:16:00;;;;;;;6.93;1.77;;;9.20;99.90;;;;;;4863200;29;20053;-75
2021/04/09 05:18:26;;;;;;;8.52;1.98;;;9.30;99.90;;;;;;4862639;29;20052;-75
2021/04/09 05:20:52;;;;;;;11.63;1.92;;;9.20;99.90;;;;;;4863648;29;20069;-75
2021/04/09 05:23:18;;;;;;;10.90;1.77;;;9.20;99.90;;;;;;4863848;29;20533;-75
2021/04/09 05:25:43;;;;;;;13.30;2.03;;;9.20;99.90;;;;;;4865079;29;20072;-75
2021/04/09 05:28:09;;;;;;;9.07;2.47;;;9.20;99.90;;;;;;4862801;29;20051;-75
2021/04/09 05:30:35;;;;;;;5.93;2.00;;;9.20;99.90;;;;;;4864024;29;20502;-75
2021/04/09 05:33:01;;;;;;;10.48;1.65;;;9.30;99.90;;;;;;4863197;29;20041;-75
2021/04/09 05:35:27;;;;;;;9.98;1.40;;;9.30;99.90;;;;;;4863809;29;20068;-75
2021/04/09 05:37:53;;;;;;;10.65;2.03;;;9.30;99.90;;;;;;4864344;29;20105;-75
2021/04/09 05:40:19;;;;;;;10.55;1.80;;;9.40;99.90;;;;;;4864761;29;20045;-76
2021/04/09 05:42:46;;;;;;;10.80;1.80;;;9.40;99.90;;;;;;4863296;29;20045;-76
2021/04/09 05:45:12;;;;;;;11.02;2.70;;;9.40;99.90;;;;;;4862210;29;20041;-75
2021/04/09 05:47:38;;;;;;;9.32;3.67;;;9.40;99.90;;;;;;4863568;29;20053;-76
2021/04/09 05:50:05;;;;;;;5.93;1.50;;;9.50;99.90;;;;;;4864086;29;20098;-76
2021/04/09 05:52:30;;;;;;;10.35;1.80;;;9.50;99.90;;;;;;4863806;29;20169;-76
2021/04/09 05:54:56;;;;;;;15.52;2.13;;;9.40;99.90;;;;;;4864287;29;20086;-75
2021/04/09 05:57:22;;;;;;;12.20;1.75;;;9.40;99.90;;;;;;4864904;29;20045;-76
2021/04/09 05:59:48;;;;;;;5.95;1.52;;;9.50;99.90;;;;;;4863581;29;20089;-76
2021/04/09 06:02:14;;;;;;;9.95;2.15;;;9.50;99.90;;;;;;4864505;29;20041;-76
2021/04/09 06:04:39;;;;;;;11.85;2.00;;;9.50;99.90;;;;;;4864239;29;20041;-76
2021/04/09 06:07:05;;;;;;;6.72;1.40;;;9.50;99.90;;;;;;4864375;29;20037;-76
2021/04/09 06:09:31;;;;;;;9.75;2.97;;;9.50;99.90;;;;;;4864128;29;20086;-76
2021/04/09 06:11:58;;;;;;;10.30;1.63;;;9.60;99.90;;;;;;4864428;29;20055;-76
2021/04/09 06:14:25;;;;;;;6.13;1.58;;;9.60;99.90;;;;;;4864177;29;20037;-76
2021/04/09 06:16:52;;;;;;;6.65;1.77;;;9.60;99.90;;;;;;4864323;29;20072;-75
2021/04/09 06:19:18;;;;;;;8.68;1.50;;;9.70;99.90;;;;;;4864379;29;20128;-75
2021/04/09 06:21:43;;;;;;;14.60;2.10;;;9.70;99.90;;;;;;4864257;29;20438;-76
2021/04/09 06:24:10;;;;;;;11.68;1.83;;;9.70;99.90;;;;;;4864140;29;20075;-75
2021/04/09 06:26:37;;;;;;;9.38;1.85;;;9.70;99.90;;;;;;4863834;29;20133;-75
2021/04/09 06:29:03;;;;;;;10.85;1.40;;;9.70;99.90;;;;;;4856523;29;20057;-75
2021/04/09 06:31:29;;;;;;;10.40;1.55;;;9.80;99.90;;;;;;4862040;29;20413;-75
2021/04/09 06:33:55;;;;;;;8.32;1.45;;;9.80;99.90;;;;;;4861030;29;20044;-75
2021/04/09 06:36:22;;;;;;;14.52;1.98;;;9.80;99.90;;;;;;4862213;29;20037;-75
2021/04/09 06:38:48;;;;;;;11.80;1.52;;;9.70;99.90;;;;;;4860924;29;20053;-75
2021/04/09 06:41:14;;;;;;;8.07;1.83;;;9.70;99.90;;;;;;4862200;29;20045;-75
2021/04/09 06:43:39;;;;;;;13.18;1.77;;;9.60;99.90;;;;;;4862394;29;20044;-75
2021/04/09 06:46:06;;;;;;;8.85;1.65;;;9.60;99.90;;;;;;4861843;29;20120;-75
2021/04/09 06:48:32;;;;;;;9.13;2.42;;;9.50;99.90;;;;;;4861759;29;20057;-75
2021/04/09 06:50:59;;;;;;;10.85;2.67;;;9.40;99.90;;;;;;4861966;29;20048;-75
2021/04/09 06:53:25;;;;;;;9.02;1.98;;;9.40;99.90;;;;;;4845586;29;20037;-75
2021/04/09 06:55:52;;;;;;;7.95;1.67;;;9.30;99.90;;;;;;4856021;29;20045;-75
2021/04/09 06:58:20;;;;;;;11.63;1.95;;;9.30;99.90;;;;;;4861258;29;20132;-74
2021/04/09 07:00:51;;;;;;;14.02;1.77;;;9.30;99.90;;;;;;4861095;29;20053;-75
2021/04/09 07:03:17;;;;;;;5.97;1.80;;;9.20;99.90;;;;;;4861706;29;20072;-75
2021/04/09 07:05:43;;;;;;;11.43;2.05;;;9.20;99.90;;;;;;4860974;29;20438;-75
2021/04/09 07:08:09;;;;;;;9.65;2.40;;;9.20;99.90;;;;;;4861806;29;20141;-75
2021/04/09 07:10:35;;;;;;;12.00;2.03;;;9.30;99.90;;;;;;4860755;29;20037;-75
2021/04/09 07:13:02;;;;;;;13.73;2.80;;;9.30;99.90;;;;;;4861257;29;20045;-75
2021/04/09 07:15:38;;;;;;;10.38;2.10;;;9.40;99.90;;;;;;4861082;29;20049;-75
2021/04/09 07:18:06;;;;;;;14.95;2.30;;;9.50;99.90;;;;;;4861758;29;20548;-75
2021/04/09 07:20:35;;;;;;;12.35;2.20;;;9.50;99.90;;;;;;4861028;29;20545;-75
2021/04/09 07:23:02;;;;;;;8.05;1.75;;;9.60;99.90;;;;;;4861296;29;20040;-75
2021/04/09 07:25:34;;;;;;;11.02;1.63;;;9.70;99.90;;;;;;4861400;29;20042;-75
2021/04/09 07:28:22;;;;;;;11.48;2.55;;;9.80;99.90;;;;;;4861234;29;20128;-75
2021/04/09 07:30:57;;;;;;;10.70;1.90;;;9.80;99.90;;;;;;4861150;29;20041;-75
2021/04/09 07:33:24;;;;;;;9.85;2.00;;;9.90;99.90;;;;;;4861542;29;20044;-75
2021/04/09 07:36:01;;;;;;;10.75;1.75;;;9.90;99.90;;;;;;4860951;29;20128;-75
2021/04/09 07:38:32;;;;;;;11.55;1.80;;;9.90;99.90;;;;;;4861222;29;20041;-75
2021/04/09 07:40:59;;;;;;;10.55;1.85;;;9.90;99.90;;;;;;4860729;29;20053;-75
2021/04/09 07:43:28;;;;;;;11.80;1.92;;;9.90;99.90;;;;;;4860923;29;20044;-75
2021/04/09 07:45:57;;;;;;;7.28;2.25;;;9.90;99.90;;;;;;4860911;29;20155;-75
2021/04/09 07:48:29;;;;;;;6.82;2.10;;;10.00;99.90;;;;;;4860994;29;20124;-76
2021/04/09 07:50:56;;;;;;;9.48;2.20;;;9.90;99.90;;;;;;4861031;29;20041;-75
2021/04/09 07:53:31;;;;;;;9.40;4.22;;;9.90;99.90;;;;;;4860911;29;20124;-76
2021/04/09 07:56:09;;;;;;;12.00;2.05;;;9.90;99.90;;;;;;4858309;29;20128;-76
2021/04/09 07:58:36;;;;;;;8.75;1.38;;;9.90;99.90;;;;;;4860138;29;20045;-74
2021/04/09 08:01:03;;;;;;;7.15;2.92;;;10.00;99.90;;;;;;4859999;29;20121;-74
2021/04/09 08:03:30;;;;;;;7.80;2.00;;;9.90;99.90;;;;;;4860373;29;20049;-75
2021/04/09 08:06:15;;;;;;;11.15;1.73;;;10.00;99.90;;;;;;4856457;29;20045;-75
2021/04/09 08:08:47;;;;;;;11.13;2.15;;;10.10;99.90;;;;;;4856599;29;20060;-75
2021/04/09 08:11:30;;;;;;;7.00;2.00;;;10.20;99.90;;;;;;4858978;29;20045;-75
2021/04/09 08:14:10;;;;;;;12.38;2.20;;;10.40;99.90;;;;;;4859537;29;20124;-76
2021/04/09 08:16:37;;;;;;;6.90;1.73;;;11.00;99.90;;;;;;4860043;29;20052;-75
2021/04/09 08:19:36;;;;;;;6.70;1.52;;;11.60;99.90;;;;;;4860283;29;20041;-74
2021/04/09 08:22:02;;;;;;;5.90;1.20;;;11.90;99.90;;;;;;4855744;29;20129;-75
2021/04/09 08:24:32;;;;;;;8.02;1.75;;;11.90;99.90;;;;;;4860205;29;20071;-75
2021/04/09 08:26:58;;;;;;;7.90;1.75;;;11.90;99.90;;;;;;4859410;29;20049;-75
2021/04/09 08:29:27;;;;;;;6.35;1.77;;;12.00;99.90;;;;;;4860200;29;20049;-75
2021/04/09 08:31:53;;;;;;;7.78;1.67;;;11.70;99.90;;;;;;4857994;29;20185;-75
2021/04/09 08:34:20;;;;;;;8.68;1.50;;;11.80;99.90;;;;;;4843300;29;20138;-75
2021/04/09 08:36:50;;;;;;;9.25;2.08;;;12.30;99.80;;;;;;4859973;29;20037;-76
2021/04/09 08:39:18;;;;;;;7.40;1.20;;;12.20;98.00;;;;;;4860591;29;20045;-76
2021/04/09 08:41:46;;;;;;;7.57;1.60;;;12.10;98.20;;;;;;4859286;29;20064;-75
2021/04/09 08:44:13;;;;;;;4.85;1.10;;;12.00;98.80;;;;;;4860233;29;20053;-76
2021/04/09 08:46:40;;;;;;;6.15;1.80;;;11.80;98.30;;;;;;4860134;29;20037;-76
2021/04/09 08:49:08;;;;;;;4.95;1.65;;;11.50;99.70;;;;;;4859892;29;20141;-75
2021/04/09 08:51:38;;;;;;;7.13;1.90;;;11.50;99.90;;;;;;4860378;29;20102;-76
2021/04/09 08:54:23;;;;;;;9.52;1.50;;;11.30;99.90;;;;;;4860029;29;20045;-75
2021/04/09 08:56:50;;;;;;;8.15;2.03;;;11.20;99.90;;;;;;4860201;29;20125;-75
2021/04/09 08:59:40;;;;;;;12.00;2.50;;;11.00;99.90;;;;;;4859270;29;20053;-75
2021/04/09 09:02:26;;;;;;;11.90;1.70;;;10.90;99.90;;;;;;4849461;29;20050;-74
2021/04/09 09:05:10;;;;;;;16.70;1.60;;;10.80;99.90;;;;;;4859046;29;20521;-74
2021/04/09 09:07:53;;;;;;;12.93;4.22;;;10.90;99.90;;;;;;4858891;29;20049;-75
2021/04/09 09:10:22;;;;;;;9.23;1.73;;;11.30;99.90;;;;;;4859145;29;20079;-75
2021/04/09 09:13:08;;;;;;;7.43;1.70;;;12.00;99.90;;;;;;4859000;29;20041;-74
2021/04/09 09:15:43;;;;;;;11.70;1.50;;;12.40;98.60;;;;;;4844153;29;20042;-73
2021/04/09 09:18:33;;;;;;;6.03;1.33;;;12.50;97.00;;;;;;4859715;29;20053;-75
2021/04/09 09:21:24;;;;;;;8.10;1.25;;;12.30;97.60;;;;;;4860194;29;20101;-75
2021/04/09 09:24:18;;;;;;;7.18;1.70;;;12.40;97.10;;;;;;4842976;29;20497;-75
2021/04/09 09:26:48;;;;;;;7.65;1.55;;;12.30;97.60;;;;;;4859711;29;20049;-75
2021/04/09 09:29:19;;;;;;;9.13;2.97;;;12.30;97.00;;;;;;4859340;29;20325;-74
2021/04/09 09:32:00;;;;;;;9.18;2.47;;;12.40;96.70;;;;;;4859525;29;20069;-75
2021/04/09 09:34:30;;;;;;;8.15;1.67;;;12.80;95.20;;;;;;4867385;29;20493;-75
2021/04/09 09:37:09;;;;;;;11.13;4.70;;;13.30;93.80;;;;;;4861009;29;20049;-75
2021/04/09 09:39:48;;;;;;;11.07;5.10;;;13.30;92.60;;;;;;4858194;29;20072;-76
2021/04/09 09:42:20;;;;;;;7.88;1.50;;;13.10;91.70;;;;;;4844642;29;20072;-75
2021/04/09 09:44:50;;;;;;;16.88;3.90;;;12.50;93.20;;;;;;4857604;29;20041;-75
2021/04/09 09:47:27;;;;;;;13.73;4.17;;;12.50;92.90;;;;;;4862780;29;20068;-75
2021/04/09 09:52:53;;;;;;;9.40;1.50;;;12.70;90.90;;;;;;4862417;29;20043;-75
2021/04/09 09:55:40;;;;;;;6.68;1.35;;;13.00;90.60;;;;;;4863399;29;20037;-75
2021/04/09 09:58:14;;;;;;;8.00;1.55;;;12.70;91.00;;;;;;4862750;29;20049;-75
2021/04/09 10:00:51;;;;;;;12.55;1.80;;;12.60;92.10;;;;;;4862197;29;20071;-74
2021/04/09 10:03:38;;;;;;;9.00;1.65;;;12.50;92.90;;;;;;4862177;29;20049;-74
2021/04/09 10:06:10;;;;;;;18.58;1.83;;;12.30;92.40;;;;;;4859481;29;20053;-74
2021/04/09 10:08:37;;;;;;;6.05;0.80;;;12.60;91.90;;;;;;4857469;29;20053;-72
2021/04/09 10:11:14;;;;;;;4.22;1.05;;;12.80;90.90;;;;;;4861058;29;20053;-74
2021/04/09 10:13:41;;;;;;;16.13;6.53;;;12.60;90.10;;;;;;4858638;29;20045;-76
2021/04/09 10:16:21;;;;;;;4.30;1.67;;;12.80;90.30;;;;;;4861145;29;20090;-74
2021/04/09 10:18:51;;;;;;;11.32;1.92;;;13.10;90.50;;;;;;4860212;29;20045;-74
2021/04/09 10:21:31;;;;;;;7.63;1.40;;;13.20;89.20;;;;;;4860505;29;20564;-75
2021/04/09 10:24:07;;;;;;;7.88;1.38;;;13.50;88.00;;;;;;4860442;29;20037;-75
2021/04/09 10:26:34;;;;;;;7.78;1.38;;;13.60;84.70;;;;;;4861625;29;20231;-75
2021/04/09 10:29:00;;;;;;;9.15;3.72;;;13.40;82.10;;;;;;4859948;29;20057;-75
2021/04/09 10:31:26;;;;;;;6.30;1.45;;;13.10;82.90;;;;;;4860980;29;20046;-74
2021/04/09 10:33:56;;;;;;;9.05;1.42;;;12.80;84.70;;;;;;4860838;29;20052;-73
2021/04/09 10:36:29;;;;;;;12.37;1.77;;;12.60;85.30;;;;;;4860905;29;20047;-76
2021/04/09 10:38:57;;;;;;;11.05;1.33;;;12.70;86.70;;;;;;4860499;29;20077;-75
2021/04/09 10:41:42;;;;;;;16.00;1.80;;;12.60;86.60;;;;;;4860701;29;20461;-74
2021/04/09 10:44:14;;;;;;;7.75;1.50;;;12.40;87.10;;;;;;4858889;29;20116;-75
2021/04/09 10:46:50;;;;;;;7.32;1.25;;;12.40;87.70;;;;;;4860793;29;20049;-75
2021/04/09 10:49:21;;;;;;;6.00;1.27;;;12.40;87.90;;;;;;4860116;29;20128;-74
2021/04/09 10:51:55;;;;;;;12.43;1.48;;;12.50;87.80;;;;;;4860319;29;20037;-75
2021/04/09 10:54:26;;;;;;;13.95;1.73;;;12.40;87.80;;;;;;4860462;29;20084;-74
2021/04/09 10:57:04;;;;;;;;;;;12.20;90.00;;;;;;4860915;29;20041;-74
2021/04/09 10:59:33;;;;;;;7.22;0.85;;;12.30;89.40;;;;;;4858168;29;19927;-73
2021/04/09 11:02:00;;;;;;;9.70;1.20;;;12.10;90.40;;;;;;4860656;29;20399;-74
2021/04/09 11:04:28;;;;;;;7.75;1.58;;;12.10;91.40;;;;;;4861601;29;20049;-73
2021/04/09 11:06:59;;;;;;;7.55;1.35;;;12.10;91.60;;;;;;4861911;29;20037;-73
2021/04/09 11:09:47;;;;;;;5.30;1.08;;;12.20;91.50;;;;;;4861443;29;20085;-73
2021/04/09 11:12:20;;;;;;;12.02;1.67;;;12.50;91.20;;;;;;4861824;29;20086;-73
2021/04/09 11:14:47;;;;;;;6.53;1.30;;;12.70;91.30;;;;;;4861405;29;20194;-73
2021/04/09 11:17:27;;;;;;;3.88;1.45;;;12.70;91.40;;;;;;4861598;29;20041;-73
2021/04/09 11:19:57;;;;;;;9.77;1.60;;;12.40;92.40;;;;;;4861194;29;20231;-73
2021/04/09 11:22:25;;;;;;;13.32;1.67;;;12.20;93.90;;;;;;4861427;29;20049;-73
2021/04/09 11:25:05;;;;;;;8.30;1.27;;;12.10;94.50;;;;;;4855625;29;20186;-74
2021/04/09 11:27:34;;;;;;;11.30;2.28;;;12.20;94.20;;;;;;4861971;29;20125;-75
2021/04/09 11:30:14;;;;;;;10.80;1.65;;;12.20;94.10;;;;;;4858511;29;20076;-74
2021/04/09 11:32:48;;;;;;;9.23;1.63;;;12.10;93.90;;;;;;4857451;29;20077;-74
2021/04/09 11:35:14;;;;;;;7.32;1.60;;;12.10;94.30;;;;;;4856444;29;20084;-74
2021/04/09 11:37:52;;;;;;;8.55;2.00;;;12.00;94.70;;;;;;4858860;29;20129;-74
2021/04/09 11:40:40;;;;;;;8.65;1.38;;;12.10;95.00;;;;;;4856439;29;20068;-74
2021/04/09 11:43:08;;;;;;;10.73;1.30;;;12.00;95.30;;;;;;4859547;29;20041;-74
2021/04/09 11:45:41;;;;;;;8.60;1.58;;;12.10;95.40;;;;;;4859774;29;20053;-74
2021/04/09 11:48:26;;;;;;;6.75;1.38;;;12.00;95.50;;;;;;4860597;29;20053;-75
2021/04/09 11:50:54;;;;;;;10.82;1.60;;;11.90;96.20;;;;;;4862832;29;20037;-75
2021/04/09 11:53:20;;;;;;;16.98;2.22;;;11.70;96.10;;;;;;4850448;29;20057;-75
2021/04/09 11:55:48;;;;;;;14.63;1.73;;;11.70;96.30;;;;;;4851363;29;20065;-75
2021/04/09 11:58:29;;;;;;;9.90;2.53;;;11.80;96.50;;;;;;4858662;29;20062;-74
2021/04/09 12:01:00;;;;;;;8.95;1.83;;;11.80;96.50;;;;;;4857511;29;20065;-74
2021/04/09 12:03:36;;;;;;;;;;;11.80;96.50;;;;;;4859790;29;20049;-73
2021/04/09 12:06:36;;;;;;;13.25;1.98;;;11.80;96.70;;;;;;4858034;29;19920;-74
2021/04/09 12:09:03;;;;;;;16.10;2.00;;;11.80;96.60;;;;;;4824025;29;20132;-75
2021/04/09 12:11:30;;;;;;;10.98;1.60;;;11.80;97.30;;;;;;4858172;29;20520;-74
2021/04/09 12:13:56;;;;;;;10.32;2.47;;;11.70;97.40;;;;;;4858024;29;20533;-74
2021/04/09 12:16:22;;;;;;;13.05;2.05;;;11.80;97.00;;;;;;4854770;29;20048;-74
2021/04/09 12:18:48;;;;;;;11.75;1.95;;;11.90;97.10;;;;;;4858680;29;20101;-74
2021/04/09 12:21:14;;;;;;;8.77;1.52;;;12.00;96.70;;;;;;4858082;29;20129;-73
2021/04/09 12:23:40;;;;;;;11.40;1.80;;;11.90;97.00;;;;;;4858674;29;20057;-74
2021/04/09 12:26:06;;;;;;;7.35;1.50;;;11.90;97.30;;;;;;4858228;29;20048;-74
2021/04/09 12:28:32;;;;;;;9.43;1.50;;;11.80;97.30;;;;;;4857208;29;20046;-74
2021/04/09 12:30:57;;;;;;;5.70;1.42;;;11.60;97.80;;;;;;4855660;29;20075;-74
2021/04/09 12:33:23;;;;;;;7.82;2.45;;;11.60;97.70;;;;;;4850161;29;20133;-73
2021/04/09 12:35:49;;;;;;;9.00;1.80;;;11.60;97.10;;;;;;4857212;29;20548;-74
2021/04/09 12:38:15;;;;;;;8.38;1.90;;;11.50;96.30;;;;;;4853422;29;20049;-73
2021/04/09 12:40:41;;;;;;;7.55;1.17;;;11.60;96.50;;;;;;4858549;29;20041;-73
2021/04/09 12:43:07;;;;;;;4.55;1.20;;;11.50;96.20;;;;;;4858648;29;20179;-74
2021/04/09 12:45:33;;;;;;;7.20;1.30;;;11.50;97.10;;;;;;4858676;29;20076;-74
2021/04/09 12:47:59;;;;;;;9.85;2.70;;;11.40;97.20;;;;;;4842842;29;20539;-74
2021/04/09 12:50:25;;;;;;;11.68;2.10;;;11.50;97.20;;;;;;4858445;29;20128;-74
2021/04/09 12:52:51;;;;;;;15.30;2.00;;;11.50;97.00;;;;;;4859115;29;20045;-74
2021/04/09 12:55:17;;;;;;;10.55;2.75;;;11.50;97.00;;;;;;4858746;29;20057;-74
2021/04/09 12:57:43;;;;;;;8.27;1.83;;;11.50;97.60;;;;;;4859683;29;20052;-74
2021/04/09 13:00:10;;;;;;;16.17;2.08;;;11.50;97.40;;;;;;4859053;29;20061;-74
2021/04/09 13:02:36;;;;;;;9.63;2.05;;;11.50;97.70;;;;;;4859292;29;20030;-74
2021/04/09 13:05:02;;;;;;;7.85;1.67;;;11.50;98.10;;;;;;4859149;29;20113;-74